createdAt,value
2023-05-19T00:00:31.967Z,535.0000
2023-05-19T00:01:32.869Z,547.0769
2023-05-19T00:02:33.940Z,538.2308
2023-05-19T00:03:34.838Z,538.6154
2023-05-19T00:04:35.907Z,534.7692
2023-05-19T00:05:37.066Z,538.5385
2023-05-19T00:06:38.016Z,560.0000
2023-05-19T00:07:39.014Z,563.3846
2023-05-19T00:08:40.054Z,545.6923
2023-05-19T00:09:41.121Z,545.0769
2023-05-19T00:10:42.186Z,547.4615
2023-05-19T00:11:43.225Z,552.1539
2023-05-19T00:12:44.297Z,544.1539
2023-05-19T00:13:45.287Z,575.6923
2023-05-19T00:14:46.349Z,562.7692
2023-05-19T00:15:47.423Z,559.1539
2023-05-19T00:16:48.409Z,552.4615
2023-05-19T00:17:49.413Z,535.6923
2023-05-19T00:18:50.566Z,555.8461
2023-05-19T00:19:51.490Z,533.9231
2023-05-19T00:20:52.583Z,524.6154
2023-05-19T00:21:53.667Z,512.6154
2023-05-19T00:22:54.631Z,516.6154
2023-05-19T00:23:55.668Z,525.0769
2023-05-19T00:24:56.796Z,516.9231
2023-05-19T00:25:57.812Z,544.6923
2023-05-19T00:26:58.833Z,564.7692
2023-05-19T00:27:59.809Z,563.3077
2023-05-19T00:29:00.863Z,565.7692
2023-05-19T00:30:01.892Z,591.6154
2023-05-19T00:31:03.010Z,568.6923
2023-05-19T00:32:04.026Z,565.3846
2023-05-19T00:33:05.137Z,524.1539
2023-05-19T00:34:06.074Z,515.6923
2023-05-19T00:35:07.097Z,536.4615
2023-05-19T00:36:08.210Z,541.8461
2023-05-19T00:37:09.252Z,555.9231
2023-05-19T00:38:10.233Z,553.0769
2023-05-19T00:39:11.329Z,556.4615
2023-05-19T00:40:12.315Z,552.3846
2023-05-19T00:41:13.429Z,551.1539
2023-05-19T00:42:14.507Z,547.0000
2023-05-19T00:43:15.429Z,525.0000
2023-05-19T00:44:16.490Z,522.6923
2023-05-19T00:45:17.568Z,512.4615
2023-05-19T00:46:18.649Z,552.0000
2023-05-19T00:47:19.679Z,543.0000
2023-05-19T00:48:20.650Z,539.8461
2023-05-19T00:49:21.710Z,567.8461
2023-05-19T00:50:22.746Z,566.1539
2023-05-19T00:51:23.890Z,538.5385
2023-05-19T00:52:24.906Z,514.9231
2023-05-19T00:53:25.852Z,544.1539
2023-05-19T00:54:26.912Z,563.0000
2023-05-19T00:55:27.999Z,548.3846
2023-05-19T00:56:29.099Z,551.0000
2023-05-19T00:57:30.106Z,540.2308
2023-05-19T00:58:31.219Z,563.3846
2023-05-19T00:59:32.153Z,535.3846
2023-05-19T01:00:33.421Z,527.9231
2023-05-19T01:01:34.385Z,540.3077
2023-05-19T01:02:35.392Z,560.0769
2023-05-19T01:03:36.473Z,585.4615
2023-05-19T01:04:37.308Z,596.9231
2023-05-19T01:05:38.412Z,588.0000
2023-05-19T01:06:39.452Z,571.0000
2023-05-19T01:07:40.509Z,569.5385
2023-05-19T01:08:41.522Z,545.0000
2023-05-19T01:09:42.552Z,551.3846
2023-05-19T01:10:43.579Z,544.6154
2023-05-19T01:11:44.687Z,529.3077
2023-05-19T01:12:45.697Z,557.6923
2023-05-19T01:13:46.725Z,544.3077
2023-05-19T01:14:47.757Z,573.6154
2023-05-19T01:15:48.838Z,552.2308
2023-05-19T01:16:49.938Z,531.3846
2023-05-19T01:17:50.935Z,556.3077
2023-05-19T01:18:51.937Z,556.1539
2023-05-19T01:19:53.011Z,534.9231
2023-05-19T01:20:54.027Z,545.8461
2023-05-19T01:21:55.106Z,525.6154
2023-05-19T01:22:56.113Z,542.2308
2023-05-19T01:23:57.200Z,528.8461
2023-05-19T01:24:58.150Z,519.3846
2023-05-19T01:25:59.185Z,524.9231
2023-05-19T01:27:00.331Z,544.9231
2023-05-19T01:28:01.370Z,558.5385
2023-05-19T01:29:02.379Z,562.2308
2023-05-19T01:30:03.407Z,561.9231
2023-05-19T01:31:04.446Z,593.6923
2023-05-19T01:32:05.599Z,597.4615
2023-05-19T01:33:06.610Z,592.0769
2023-05-19T01:34:07.663Z,585.0769
2023-05-19T01:35:08.594Z,567.2308
2023-05-19T01:36:09.741Z,552.3846
2023-05-19T01:37:10.786Z,561.1539
2023-05-19T01:38:11.791Z,537.7692
2023-05-19T01:39:12.792Z,516.3077
2023-05-19T01:40:13.813Z,519.3846
2023-05-19T01:41:14.948Z,511.2308
2023-05-19T01:42:15.935Z,524.9231
2023-05-19T01:43:16.985Z,535.1539
2023-05-19T01:44:18.082Z,562.3846
2023-05-19T01:45:19.100Z,565.3846
2023-05-19T01:46:20.098Z,560.3846
2023-05-19T01:47:21.239Z,548.6154
2023-05-19T01:48:22.200Z,541.5385
2023-05-19T01:49:23.219Z,539.0769
2023-05-19T01:50:24.264Z,552.2308
2023-05-19T01:51:25.296Z,541.5385
2023-05-19T01:52:26.377Z,537.9231
2023-05-19T01:53:27.416Z,547.7692
2023-05-19T01:54:28.416Z,561.0769
2023-05-19T01:55:29.473Z,577.0000
2023-05-19T01:56:30.494Z,570.1539
2023-05-19T01:57:31.593Z,572.2308
2023-05-19T01:58:32.694Z,578.2308
2023-05-19T01:59:33.638Z,596.5385
2023-05-19T02:00:34.815Z,576.0769
2023-05-19T02:01:35.753Z,565.9231
2023-05-19T02:02:36.839Z,555.6154
2023-05-19T02:03:37.857Z,566.6154
2023-05-19T02:04:38.877Z,591.6154
2023-05-19T02:05:39.940Z,573.1539
2023-05-19T02:06:40.960Z,586.0769
2023-05-19T02:07:42.017Z,594.9231
2023-05-19T02:08:43.126Z,595.3077
2023-05-19T02:09:44.037Z,606.8461
2023-05-19T02:10:45.137Z,585.3077
2023-05-19T02:11:46.113Z,568.7692
2023-05-19T02:12:47.191Z,560.8461
2023-05-19T02:13:48.268Z,526.0769
2023-05-19T02:14:49.270Z,535.1539
2023-05-19T02:15:50.374Z,556.6923
2023-05-19T02:16:51.350Z,542.9231
2023-05-19T02:17:52.461Z,538.5385
2023-05-19T02:18:53.541Z,535.0769
2023-05-19T02:19:54.469Z,533.5385
2023-05-19T02:20:55.494Z,555.7692
2023-05-19T02:21:56.550Z,551.4615
2023-05-19T02:22:57.656Z,557.6154
2023-05-19T02:23:58.723Z,547.5385
2023-05-19T02:24:59.673Z,556.4615
2023-05-19T02:26:00.717Z,551.6154
2023-05-19T02:27:01.736Z,553.7692
2023-05-19T02:28:02.838Z,534.6154
2023-05-19T02:29:03.858Z,562.0769
2023-05-19T02:30:04.845Z,572.5385
2023-05-19T02:31:05.945Z,583.7692
2023-05-19T02:32:07.027Z,587.8461
2023-05-19T02:33:08.082Z,583.7692
2023-05-19T02:34:09.053Z,572.4615
2023-05-19T02:35:10.025Z,530.3077
2023-05-19T02:36:11.085Z,542.4615
2023-05-19T02:37:12.118Z,547.6923
2023-05-19T02:38:13.225Z,537.9231
2023-05-19T02:39:14.296Z,527.6923
2023-05-19T02:40:15.338Z,515.7692
2023-05-19T02:41:16.311Z,529.3077
2023-05-19T02:42:17.334Z,528.8461
2023-05-19T02:43:18.426Z,520.5385
2023-05-19T02:44:19.446Z,523.6923
2023-05-19T02:45:20.470Z,517.0000
2023-05-19T02:46:21.559Z,549.0769
2023-05-19T02:47:22.605Z,543.3077
2023-05-19T02:48:23.605Z,551.6923
2023-05-19T02:49:24.656Z,544.5385
2023-05-19T02:50:25.652Z,543.6154
2023-05-19T02:51:26.709Z,532.5385
2023-05-19T02:52:27.727Z,564.8461
2023-05-19T02:53:28.806Z,526.1539
2023-05-19T02:54:29.855Z,548.6923
2023-05-19T02:55:30.865Z,521.8461
2023-05-19T02:56:31.907Z,523.4615
2023-05-19T02:57:32.964Z,535.4615
2023-05-19T02:58:34.040Z,538.4615
2023-05-19T02:59:35.115Z,545.2308
2023-05-19T03:00:36.060Z,538.8461
2023-05-19T03:01:37.185Z,526.4615
2023-05-19T03:02:38.313Z,541.3846
2023-05-19T03:03:39.329Z,520.2308
2023-05-19T03:04:40.253Z,513.6154
2023-05-19T03:05:41.327Z,506.2308
2023-05-19T03:06:42.307Z,536.6923
2023-05-19T03:07:43.425Z,517.3846
2023-05-19T03:08:44.429Z,522.2308
2023-05-19T03:09:45.522Z,518.8461
2023-05-19T03:10:46.465Z,490.3846
2023-05-19T03:11:47.489Z,532.6923
2023-05-19T03:12:48.610Z,490.3846
2023-05-19T03:13:49.617Z,500.3077
2023-05-19T03:14:50.665Z,551.3077
2023-05-19T03:15:51.698Z,545.0000
2023-05-19T03:16:52.918Z,532.9231
2023-05-19T03:17:53.784Z,524.0000
2023-05-19T03:18:54.903Z,541.2308
2023-05-19T03:19:55.899Z,531.3077
2023-05-19T03:20:56.922Z,519.3846
2023-05-19T03:21:57.893Z,533.9231
2023-05-19T03:22:59.018Z,552.3077
2023-05-19T03:24:00.100Z,577.5385
2023-05-19T03:25:01.087Z,544.3077
2023-05-19T03:26:02.054Z,534.6923
2023-05-19T03:27:03.194Z,536.3077
2023-05-19T03:28:04.152Z,552.7692
2023-05-19T03:29:05.240Z,550.6923
2023-05-19T03:30:06.726Z,552.3077
2023-05-19T03:31:07.337Z,536.6923
2023-05-19T03:32:08.296Z,535.1539
2023-05-19T03:33:09.522Z,557.3846
2023-05-19T03:34:10.395Z,598.1539
2023-05-19T03:35:11.512Z,563.0000
2023-05-19T03:36:12.496Z,571.8461
2023-05-19T03:37:13.519Z,575.2308
2023-05-19T03:38:14.536Z,572.5385
2023-05-19T03:39:15.692Z,557.2308
2023-05-19T03:40:16.691Z,547.6923
2023-05-19T03:41:17.733Z,597.1539
2023-05-19T03:42:18.697Z,587.1539
2023-05-19T03:43:19.755Z,558.8461
2023-05-19T03:44:20.869Z,555.1539
2023-05-19T03:45:21.923Z,532.7692
2023-05-19T03:46:22.983Z,528.6154
2023-05-19T03:47:23.959Z,531.1539
2023-05-19T03:48:24.959Z,551.3846
2023-05-19T03:49:26.026Z,554.0769
2023-05-19T03:50:27.157Z,539.5385
2023-05-19T03:51:28.069Z,573.3846
2023-05-19T03:52:29.137Z,574.2308
2023-05-19T03:53:30.148Z,571.3846
2023-05-19T03:54:31.274Z,570.7692
2023-05-19T03:55:32.257Z,569.0000
2023-05-19T03:56:33.311Z,567.8461
2023-05-19T03:57:34.309Z,563.8461
2023-05-19T03:58:35.392Z,585.1539
2023-05-19T03:59:36.421Z,605.4615
2023-05-19T04:00:37.558Z,591.9231
2023-05-19T04:01:38.500Z,570.6923
2023-05-19T04:02:39.654Z,586.1539
2023-05-19T04:03:40.618Z,587.1539
2023-05-19T04:04:41.682Z,578.2308
2023-05-19T04:05:42.709Z,574.6154
2023-05-19T04:06:43.695Z,560.3846
2023-05-19T04:07:44.715Z,543.9231
2023-05-19T04:08:45.800Z,525.0769
2023-05-19T04:09:46.860Z,530.0000
2023-05-19T04:10:47.907Z,544.7692
2023-05-19T04:11:48.931Z,572.6923
2023-05-19T04:12:49.954Z,559.8461
2023-05-19T04:13:51.030Z,545.0000
2023-05-19T04:14:52.095Z,541.2308
2023-05-19T04:15:53.230Z,533.6923
2023-05-19T04:16:54.151Z,532.5385
2023-05-19T04:17:55.225Z,560.2308
2023-05-19T04:18:56.304Z,540.5385
2023-05-19T04:19:57.324Z,527.5385
2023-05-19T04:20:58.334Z,525.5385
2023-05-19T04:21:59.349Z,555.0000
2023-05-19T04:23:00.403Z,553.2308
2023-05-19T04:24:01.455Z,534.3846
2023-05-19T04:25:02.569Z,561.6923
2023-05-19T04:26:03.596Z,552.3077
2023-05-19T04:27:04.657Z,564.3077
2023-05-19T04:28:05.618Z,579.2308
2023-05-19T04:29:06.735Z,562.7692
2023-05-19T04:30:07.818Z,545.6923
2023-05-19T04:31:08.860Z,549.5385
2023-05-19T04:32:09.871Z,567.9231
2023-05-19T04:33:10.870Z,570.3077
2023-05-19T04:34:11.928Z,536.6923
2023-05-19T04:35:13.086Z,536.9231
2023-05-19T04:36:14.058Z,556.5385
2023-05-19T04:37:15.076Z,551.6923
2023-05-19T04:38:16.054Z,528.9231
2023-05-19T04:39:17.126Z,520.8461
2023-05-19T04:40:18.233Z,555.2308
2023-05-19T04:41:19.283Z,575.8461
2023-05-19T04:42:20.295Z,587.1539
2023-05-19T04:43:21.297Z,566.2308
2023-05-19T04:44:22.336Z,562.0000
2023-05-19T04:45:23.421Z,563.5385
2023-05-19T04:46:24.585Z,562.2308
2023-05-19T04:47:25.516Z,550.5385
2023-05-19T04:48:26.591Z,581.8461
2023-05-19T04:49:27.594Z,552.1539
2023-05-19T04:50:28.700Z,569.9231
2023-05-19T04:51:30.665Z,582.4615
2023-05-19T04:52:30.676Z,550.5385
2023-05-19T04:53:31.737Z,527.1539
2023-05-19T04:54:32.871Z,544.6154
2023-05-19T04:55:33.879Z,529.6923
2023-05-19T04:56:34.984Z,547.6154
2023-05-19T04:57:35.913Z,534.6923
2023-05-19T04:58:36.954Z,525.0000
2023-05-19T04:59:37.985Z,533.2308
2023-05-19T05:00:39.090Z,530.3846
2023-05-19T05:01:40.207Z,529.7692
2023-05-19T05:02:41.186Z,538.6923
2023-05-19T05:03:42.245Z,559.0000
2023-05-19T05:04:43.230Z,561.2308
2023-05-19T05:05:44.323Z,558.1539
2023-05-19T05:06:45.352Z,527.9231
2023-05-19T05:07:46.327Z,494.3846
2023-05-19T05:08:47.403Z,502.9231
2023-05-19T05:09:48.476Z,506.6154
2023-05-19T05:10:49.547Z,556.1539
2023-05-19T05:11:50.572Z,556.4615
2023-05-19T05:12:51.676Z,535.6923
2023-05-19T05:13:52.632Z,569.2308
2023-05-19T05:14:53.728Z,568.6154
2023-05-19T05:15:54.783Z,535.1539
2023-05-19T05:16:55.811Z,524.0000
2023-05-19T05:17:56.939Z,537.9231
2023-05-19T05:18:57.904Z,584.6154
2023-05-19T05:19:58.906Z,584.7692
2023-05-19T05:20:59.947Z,596.6154
2023-05-19T05:22:01.052Z,567.6923
2023-05-19T05:23:01.990Z,580.3077
2023-05-19T05:24:03.006Z,591.2308
2023-05-19T05:25:04.109Z,578.7692
2023-05-19T05:26:05.157Z,560.7692
2023-05-19T05:27:06.270Z,544.0769
2023-05-19T05:28:07.330Z,527.3077
2023-05-19T05:29:08.333Z,574.8461
2023-05-19T05:30:09.329Z,581.6154
2023-05-19T05:31:10.461Z,557.1539
2023-05-19T05:32:11.493Z,538.1539
2023-05-19T05:33:12.748Z,533.6923
2023-05-19T05:34:13.530Z,500.1538
2023-05-19T05:35:14.563Z,519.4615
2023-05-19T05:36:15.665Z,509.1538
2023-05-19T05:37:16.697Z,493.9231
2023-05-19T05:38:17.736Z,508.4615
2023-05-19T05:39:18.750Z,526.6923
2023-05-19T05:40:19.774Z,496.8462
2023-05-19T05:41:20.823Z,524.6154
2023-05-19T05:42:21.950Z,518.6154
2023-05-19T05:43:22.910Z,499.3077
2023-05-19T05:44:23.939Z,518.0000
2023-05-19T05:45:24.997Z,523.2308
2023-05-19T05:46:26.195Z,520.7692
2023-05-19T05:47:27.153Z,517.3846
2023-05-19T05:48:28.108Z,541.7692
2023-05-19T05:49:29.145Z,541.1539
2023-05-19T05:50:30.187Z,549.5385
2023-05-19T05:51:31.249Z,546.8461
2023-05-19T05:52:32.294Z,537.3846
2023-05-19T05:53:33.295Z,525.4615
2023-05-19T05:54:34.337Z,510.6154
2023-05-19T05:55:35.546Z,523.0769
2023-05-19T05:56:36.513Z,548.6154
2023-05-19T05:57:37.565Z,524.4615
2023-05-19T05:58:38.517Z,556.1539
2023-05-19T05:59:39.554Z,572.7692
2023-05-19T06:00:40.593Z,546.9231
2023-05-19T06:01:41.721Z,541.6923
2023-05-19T06:02:42.820Z,547.3846
2023-05-19T06:03:43.835Z,561.2308
2023-05-19T06:04:44.751Z,579.1539
2023-05-19T06:05:45.829Z,577.0000
2023-05-19T06:06:46.862Z,552.6923
2023-05-19T06:07:47.940Z,547.0000
2023-05-19T06:08:48.906Z,551.0769
2023-05-19T06:09:49.953Z,552.0000
2023-05-19T06:10:51.018Z,542.8461
2023-05-19T06:11:52.075Z,524.1539
2023-05-19T06:12:53.130Z,536.3846
2023-05-19T06:13:54.113Z,555.3077
2023-05-19T06:14:55.138Z,540.0769
2023-05-19T06:15:56.208Z,537.8461
2023-05-19T06:16:57.389Z,530.6154
2023-05-19T06:17:58.367Z,521.8461
2023-05-19T06:18:59.452Z,521.4615
2023-05-19T06:20:00.340Z,521.9231
2023-05-19T06:21:01.503Z,544.0769
2023-05-19T06:22:02.524Z,557.0769
2023-05-19T06:23:03.544Z,548.7692
2023-05-19T06:24:04.538Z,557.1539
2023-05-19T06:25:05.632Z,571.6923
2023-05-19T06:26:06.611Z,592.9231
2023-05-19T06:27:07.825Z,608.7692
2023-05-19T06:28:08.796Z,579.6154
2023-05-19T06:29:09.730Z,546.0000
2023-05-19T06:30:10.788Z,572.8461
2023-05-19T06:31:11.841Z,567.3846
2023-05-19T06:32:12.880Z,532.0000
2023-05-19T06:33:14.002Z,531.6154
2023-05-19T06:34:14.943Z,545.8461
2023-05-19T06:35:16.065Z,517.7692
2023-05-19T06:36:17.119Z,557.3077
2023-05-19T06:37:18.216Z,585.0769
2023-05-19T06:38:19.162Z,584.6923
2023-05-19T06:39:20.192Z,553.8461
2023-05-19T06:40:21.200Z,562.0769
2023-05-19T06:41:22.391Z,586.3846
2023-05-19T06:42:23.327Z,588.3077
2023-05-19T06:43:24.396Z,584.0000
2023-05-19T06:44:25.356Z,571.6923
2023-05-19T06:45:26.439Z,567.7692
2023-05-19T06:46:27.460Z,575.6154
2023-05-19T06:47:28.566Z,558.5385
2023-05-19T06:48:29.631Z,549.0769
2023-05-19T06:49:30.612Z,564.4615
2023-05-19T06:50:31.843Z,578.4615
2023-05-19T06:51:32.670Z,576.8461
2023-05-19T06:52:33.860Z,561.6923
2023-05-19T06:53:34.816Z,538.0769
2023-05-19T06:54:35.775Z,539.0000
2023-05-19T06:55:41.400Z,529.3077
2023-05-19T06:56:37.908Z,545.9231
2023-05-19T06:57:38.946Z,545.4615
2023-05-19T06:58:39.921Z,560.4615
2023-05-19T06:59:40.901Z,593.5385
2023-05-19T07:00:41.965Z,571.6923
2023-05-19T07:01:43.077Z,585.4615
2023-05-19T07:02:44.152Z,574.4615
2023-05-19T07:03:45.156Z,586.7692
2023-05-19T07:04:46.105Z,599.6154
2023-05-19T07:05:47.133Z,608.1539
2023-05-19T07:06:48.185Z,595.4615
2023-05-19T07:07:49.253Z,554.6923
2023-05-19T07:08:51.816Z,523.1539
2023-05-19T07:09:51.312Z,496.4615
2023-05-19T07:10:52.380Z,480.3077
2023-05-19T07:11:53.373Z,520.6154
2023-05-19T07:12:54.492Z,536.4615
2023-05-19T07:13:55.616Z,521.5385
2023-05-19T07:14:56.590Z,484.0000
2023-05-19T07:15:57.601Z,519.1539
2023-05-19T07:16:58.607Z,551.7692
2023-05-19T07:17:59.724Z,555.8461
2023-05-19T07:19:00.800Z,556.7692
2023-05-19T07:20:01.731Z,561.9231
2023-05-19T07:21:02.788Z,575.3077
2023-05-19T07:22:03.822Z,556.0769
2023-05-19T07:23:04.901Z,542.3077
2023-05-19T07:24:05.932Z,531.6154
2023-05-19T07:25:06.993Z,509.5385
2023-05-19T07:26:07.965Z,483.9231
2023-05-19T07:27:09.071Z,503.0000
2023-05-19T07:28:10.135Z,501.4615
2023-05-19T07:29:11.204Z,473.7692
2023-05-19T07:30:12.223Z,501.3846
2023-05-19T07:31:13.208Z,513.1539
2023-05-19T07:32:14.344Z,506.6923
2023-05-19T07:33:15.395Z,521.8461
2023-05-19T07:34:16.349Z,510.0000
2023-05-19T07:35:17.415Z,506.7692
2023-05-19T07:36:18.405Z,529.3077
2023-05-19T07:37:19.499Z,533.1539
2023-05-19T07:38:20.505Z,558.6154
2023-05-19T07:39:21.609Z,553.0769
2023-05-19T07:40:22.594Z,540.3846
2023-05-19T07:41:23.640Z,550.9231
2023-05-19T07:42:24.699Z,526.2308
2023-05-19T07:43:25.696Z,537.3846
2023-05-19T07:44:26.750Z,538.3077
2023-05-19T07:45:27.848Z,534.6923
2023-05-19T07:46:28.993Z,503.1538
2023-05-19T07:47:30.023Z,535.6923
2023-05-19T07:48:30.890Z,539.6923
2023-05-19T07:49:32.011Z,542.7692
2023-05-19T07:50:33.140Z,551.0000
2023-05-19T07:51:34.019Z,538.9231
2023-05-19T07:52:35.083Z,530.7692
2023-05-19T07:53:36.135Z,559.5385
2023-05-19T07:54:37.164Z,585.2308
2023-05-19T07:55:38.208Z,600.5385
2023-05-19T07:56:39.214Z,601.3077
2023-05-19T07:57:40.540Z,584.6923
2023-05-19T07:58:41.332Z,574.3077
2023-05-19T07:59:42.386Z,577.1539
2023-05-19T08:00:43.435Z,553.3077
2023-05-19T08:01:44.418Z,585.2308
2023-05-19T08:02:45.493Z,565.2308
2023-05-19T08:03:46.545Z,546.7692
2023-05-19T08:04:47.680Z,582.2308
2023-05-19T08:05:48.657Z,559.0000
2023-05-19T08:06:49.591Z,524.5385
2023-05-19T08:07:50.691Z,521.4615
2023-05-19T08:08:51.747Z,518.6923
2023-05-19T08:09:52.817Z,514.0769
2023-05-19T08:10:53.847Z,526.1539
2023-05-19T08:11:54.873Z,563.6923
2023-05-19T08:12:56.138Z,564.3846
2023-05-19T08:13:56.926Z,541.2308
2023-05-19T08:14:59.734Z,552.1539
2023-05-19T08:15:59.090Z,528.6154
2023-05-19T08:17:00.039Z,509.3846
2023-05-19T08:18:01.151Z,538.0769
2023-05-19T08:19:02.173Z,544.9231
2023-05-19T08:20:03.219Z,563.9231
2023-05-19T08:21:04.247Z,524.3077
2023-05-19T08:22:05.253Z,507.6923
2023-05-19T08:23:06.271Z,508.6923
2023-05-19T08:24:07.352Z,500.6923
2023-05-19T08:25:08.438Z,466.2308
2023-05-19T08:26:09.505Z,470.6154
2023-05-19T08:27:10.482Z,506.0000
2023-05-19T08:28:11.620Z,505.7692
2023-05-19T08:29:12.522Z,518.3846
2023-05-19T08:30:13.645Z,507.9231
2023-05-19T08:31:14.704Z,523.0769
2023-05-19T08:32:15.698Z,559.6154
2023-05-19T08:33:16.701Z,546.9231
2023-05-19T08:34:17.746Z,560.2308
2023-05-19T08:35:18.865Z,557.9231
2023-05-19T08:36:20.055Z,556.0769
2023-05-19T08:37:20.907Z,553.0769
2023-05-19T08:38:21.954Z,560.2308
2023-05-19T08:39:22.945Z,542.3077
2023-05-19T08:40:24.067Z,550.3846
2023-05-19T08:41:25.128Z,583.0000
2023-05-19T08:42:26.152Z,611.8461
2023-05-19T08:43:27.148Z,599.3077
2023-05-19T08:44:28.161Z,577.3846
2023-05-19T08:45:29.465Z,571.5385
2023-05-19T08:46:30.309Z,544.9231
2023-05-19T08:47:31.337Z,542.4615
2023-05-19T08:48:32.323Z,528.0000
2023-05-19T08:49:33.346Z,548.0769
2023-05-19T08:50:34.741Z,556.0769
2023-05-19T08:51:35.497Z,520.3077
2023-05-19T08:52:36.557Z,517.8461
2023-05-19T08:53:37.519Z,520.2308
2023-05-19T08:54:38.540Z,501.3077
2023-05-19T08:55:39.625Z,527.3846
2023-05-19T08:56:40.660Z,527.6923
2023-05-19T08:57:41.699Z,546.6154
2023-05-19T08:58:42.786Z,524.7692
2023-05-19T08:59:43.781Z,537.3077
2023-05-19T09:00:44.848Z,512.1539
2023-05-19T09:01:46.027Z,506.6923
2023-05-19T09:02:55.467Z,542.0769
2023-05-19T09:03:47.974Z,584.0000
2023-05-19T09:04:49.015Z,598.9231
2023-05-19T09:05:50.073Z,602.0769
2023-05-19T09:06:51.054Z,566.3846
2023-05-19T09:07:52.165Z,574.7692
2023-05-19T09:08:53.381Z,596.4615
2023-05-19T09:09:54.137Z,597.1539
2023-05-19T09:10:55.264Z,604.2308
2023-05-19T09:11:56.306Z,606.4615
2023-05-19T09:12:57.302Z,609.4615
2023-05-19T09:13:58.316Z,583.7692
2023-05-19T09:14:59.374Z,590.3846
2023-05-19T09:16:00.390Z,589.2308
2023-05-19T09:17:01.575Z,574.5385
2023-05-19T09:18:02.558Z,592.3846
2023-05-19T09:19:03.620Z,589.4615
2023-05-19T09:20:04.574Z,616.9231
2023-05-19T09:21:05.603Z,606.3846
2023-05-19T09:22:06.718Z,572.0769
2023-05-19T09:23:07.703Z,551.5385
2023-05-19T09:24:08.726Z,555.9231
2023-05-19T09:25:09.740Z,568.3077
2023-05-19T09:26:10.752Z,558.0000
2023-05-19T09:27:11.859Z,578.6154
2023-05-19T09:28:12.943Z,590.3846
2023-05-19T09:29:13.992Z,562.0769
2023-05-19T09:30:15.007Z,562.8461
2023-05-19T09:31:16.042Z,585.3077
2023-05-19T09:32:17.096Z,580.2308
2023-05-19T09:33:18.172Z,593.4615
2023-05-19T09:34:19.298Z,588.1539
2023-05-19T09:35:20.229Z,587.6154
2023-05-19T09:36:21.182Z,602.2308
2023-05-19T09:37:22.323Z,606.1539
2023-05-19T09:38:23.300Z,609.5385
2023-05-19T09:39:24.401Z,597.5385
2023-05-19T09:40:25.479Z,610.6154
2023-05-19T09:41:26.422Z,581.1539
2023-05-19T09:42:27.458Z,574.7692
2023-05-19T09:43:28.639Z,597.3846
2023-05-19T09:44:29.718Z,604.9231
2023-05-19T09:45:30.665Z,621.0769
2023-05-19T09:46:31.656Z,637.3846
2023-05-19T09:47:32.666Z,629.0769
2023-05-19T09:48:33.706Z,624.2308
2023-05-19T09:49:34.749Z,629.3846
2023-05-19T09:50:35.836Z,610.9231
2023-05-19T09:51:36.795Z,605.1539
2023-05-19T09:52:37.833Z,590.0769
2023-05-19T09:53:38.978Z,592.4615
2023-05-19T09:54:39.939Z,603.3077
2023-05-19T09:55:40.944Z,585.2308
2023-05-19T09:56:42.012Z,597.0769
2023-05-19T09:57:43.022Z,631.0769
2023-05-19T09:58:44.088Z,635.6923
2023-05-19T09:59:45.160Z,637.2308
2023-05-19T10:00:46.193Z,613.8461
2023-05-19T10:01:47.221Z,586.9231
2023-05-19T10:02:48.287Z,579.7692
2023-05-19T10:03:49.263Z,572.0769
2023-05-19T10:04:50.365Z,580.0769
2023-05-19T10:05:51.397Z,541.9231
2023-05-19T10:06:52.420Z,583.4615
2023-05-19T10:07:53.418Z,608.0769
2023-05-19T10:08:54.462Z,605.6154
2023-05-19T10:09:56.670Z,599.9231
2023-05-19T10:10:56.665Z,589.3077
2023-05-19T10:11:57.614Z,607.4615
2023-05-19T10:12:58.647Z,613.0769
2023-05-19T10:13:59.701Z,628.0769
2023-05-19T10:15:00.734Z,637.5385
2023-05-19T10:16:02.139Z,592.8461
2023-05-19T10:17:03.021Z,605.4615
2023-05-19T10:18:03.876Z,576.0000
2023-05-19T10:19:04.966Z,607.5385
2023-05-19T10:20:05.931Z,632.3846
2023-05-19T10:21:07.012Z,626.6154
2023-05-19T10:22:08.032Z,602.0000
2023-05-19T10:23:09.195Z,617.3077
2023-05-19T10:24:11.472Z,620.3846
2023-05-19T10:25:11.152Z,567.6154
2023-05-19T10:26:12.207Z,608.9231
2023-05-19T10:27:13.272Z,629.2308
2023-05-19T10:28:14.256Z,618.9231
2023-05-19T10:29:15.301Z,589.2308
2023-05-19T10:30:16.735Z,584.8461
2023-05-19T10:31:17.418Z,606.6154
2023-05-19T10:32:18.494Z,613.0769
2023-05-19T10:33:19.584Z,631.6923
2023-05-19T10:34:20.496Z,636.7692
2023-05-19T10:35:21.572Z,646.9231
2023-05-19T10:36:22.615Z,622.0769
2023-05-19T10:37:23.659Z,641.4615
2023-05-19T10:38:24.666Z,655.1539
2023-05-19T10:39:25.741Z,618.3077
2023-05-19T10:40:26.783Z,583.6923
2023-05-19T10:41:27.830Z,552.3846
2023-05-19T10:42:28.880Z,530.6154
2023-05-19T10:43:29.875Z,541.6154
2023-05-19T10:44:30.944Z,528.2308
2023-05-19T10:45:32.189Z,572.3077
2023-05-19T10:46:33.062Z,569.6923
2023-05-19T10:47:34.135Z,575.8461
2023-05-19T10:48:35.167Z,590.7692
2023-05-19T10:49:36.113Z,605.4615
2023-05-19T10:50:37.190Z,580.0000
2023-05-19T10:51:38.248Z,570.8461
2023-05-19T10:52:39.295Z,588.0000
2023-05-19T10:53:40.351Z,571.1539
2023-05-19T10:54:41.372Z,579.0769
2023-05-19T10:55:42.380Z,602.1539
2023-05-19T10:56:43.431Z,625.3077
2023-05-19T10:57:44.463Z,614.9231
2023-05-19T10:58:45.570Z,579.3846
2023-05-19T10:59:46.545Z,583.9231
2023-05-19T11:00:47.608Z,601.9231
2023-05-19T11:01:48.633Z,598.3846
2023-05-19T11:02:49.848Z,584.3077
2023-05-19T11:03:50.839Z,607.4615
2023-05-19T11:04:52.149Z,612.3846
2023-05-19T11:05:52.799Z,616.9231
2023-05-19T11:06:53.910Z,614.5385
2023-05-19T11:07:54.903Z,614.0769
2023-05-19T11:08:55.988Z,591.1539
2023-05-19T11:09:56.984Z,605.4615
2023-05-19T11:10:58.029Z,629.0000
2023-05-19T11:11:59.042Z,632.0769
2023-05-19T11:13:00.104Z,647.8461
2023-05-19T11:14:01.206Z,614.4615
2023-05-19T11:15:02.204Z,600.3077
2023-05-19T11:16:03.193Z,612.3846
2023-05-19T11:17:04.323Z,627.5385
2023-05-19T11:18:05.383Z,643.9231
2023-05-19T11:19:06.418Z,668.9231
2023-05-19T11:20:07.428Z,679.4615
2023-05-19T11:21:08.484Z,635.0000
2023-05-19T11:22:09.479Z,568.4615
2023-05-19T11:23:10.684Z,536.8461
2023-05-19T11:24:11.559Z,548.9231
2023-05-19T11:25:12.622Z,618.3077
2023-05-19T11:26:13.633Z,619.0000
2023-05-19T11:27:14.673Z,602.4615
2023-05-19T11:28:15.697Z,588.5385
2023-05-19T11:29:16.793Z,601.3846
2023-05-19T11:30:17.814Z,570.4615
2023-05-19T11:31:18.850Z,570.6154
2023-05-19T11:32:19.932Z,576.6923
2023-05-19T11:33:21.022Z,609.3077
2023-05-19T11:34:21.993Z,635.9231
2023-05-19T11:35:23.074Z,637.4615
2023-05-19T11:36:24.030Z,639.6154
2023-05-19T11:37:25.101Z,600.3846
2023-05-19T11:38:26.112Z,606.3846
2023-05-19T11:39:27.209Z,608.6154
2023-05-19T11:40:28.252Z,606.2308
2023-05-19T11:41:29.330Z,604.6923
2023-05-19T11:42:30.303Z,612.0769
2023-05-19T11:43:31.355Z,617.2308
2023-05-19T11:44:32.401Z,631.9231
2023-05-19T11:45:33.594Z,652.6923
2023-05-19T11:46:34.571Z,667.6154
2023-05-19T11:47:46.490Z,676.7692
2023-05-19T11:48:36.550Z,648.0769
2023-05-19T11:49:37.581Z,631.5385
2023-05-19T11:50:38.692Z,617.1539
2023-05-19T11:51:39.682Z,636.9231
2023-05-19T11:52:40.704Z,665.1539
2023-05-19T11:53:41.732Z,659.4615
2023-05-19T11:54:42.773Z,671.5385
2023-05-19T11:55:44.090Z,681.8461
2023-05-19T11:56:44.903Z,697.2308